Time;durP1;ratioP1;P1;durP2;ratioP2;P2;SDS_P1;SDS_P2;PMS_P1;PMS_P2;Temp;Humidity;BMP_temperature;BMP_pressure;BME280_temperature;BME280_humidity;BME280_pressure;Samples;Min_cycle;Max_cycle;Signal;HPM_P1;HPM_P2
2024/04/11 00:00:47;;;;;;;4.53;0.77;;;12.50;68.70;;;;;;5371691;26;20004;-76
2024/04/11 00:03:14;;;;;;;8.27;1.05;;;12.50;68.70;;;;;;5373437;26;20007;-76
2024/04/11 00:05:40;;;;;;;4.57;0.70;;;12.50;68.80;;;;;;5372158;26;20046;-78
2024/04/11 00:08:06;;;;;;;5.30;1.00;;;12.50;68.70;;;;;;5371180;26;20064;-77
2024/04/11 00:10:32;;;;;;;5.28;0.80;;;12.50;68.70;;;;;;5390827;26;20004;-77
2024/04/11 00:12:58;;;;;;;5.93;1.10;;;12.50;68.90;;;;;;5373131;26;20452;-77
2024/04/11 00:15:24;;;;;;;5.82;0.90;;;12.50;69.10;;;;;;5371610;26;19992;-78
2024/04/11 00:17:49;;;;;;;7.63;0.95;;;12.50;69.10;;;;;;5373195;26;20034;-79
2024/04/11 00:20:15;;;;;;;6.00;0.80;;;12.50;68.90;;;;;;5402400;26;20444;-77
2024/04/11 00:22:40;;;;;;;4.25;0.70;;;12.50;69.10;;;;;;5408413;26;19995;-77
2024/04/11 00:25:06;;;;;;;5.70;0.98;;;12.50;68.90;;;;;;5406784;26;20011;-77
2024/04/11 00:27:33;;;;;;;5.57;0.90;;;12.50;69.00;;;;;;5408517;26;20439;-77
2024/04/11 00:29:59;;;;;;;9.18;0.85;;;12.50;69.00;;;;;;5394623;26;20003;-76
2024/04/11 00:32:25;;;;;;;7.40;0.85;;;12.60;68.90;;;;;;5381842;26;20015;-76
2024/04/11 00:34:50;;;;;;;7.70;1.17;;;12.50;68.80;;;;;;5383806;26;19996;-79
2024/04/11 00:37:16;;;;;;;9.82;0.90;;;12.60;68.80;;;;;;5377159;26;20016;-77
2024/04/11 00:39:42;;;;;;;4.07;0.60;;;12.60;68.80;;;;;;5399021;26;20006;-75
2024/04/11 00:42:07;;;;;;;9.07;1.02;;;12.60;69.00;;;;;;5391251;26;20036;-78
2024/04/11 00:44:36;;;;;;;5.70;0.70;;;12.60;69.00;;;;;;5398534;26;20004;-76
2024/04/11 00:47:09;;;;;;;4.97;0.63;;;12.60;69.00;;;;;;5392087;26;20031;-80
2024/04/11 00:49:38;;;;;;;4.17;0.80;;;12.60;68.90;;;;;;5401944;26;19999;-77
2024/04/11 00:52:03;;;;;;;6.55;0.80;;;12.60;68.90;;;;;;5386738;26;20011;-80
2024/04/11 00:54:30;;;;;;;7.93;1.08;;;12.60;68.90;;;;;;5372423;26;19997;-79
2024/04/11 00:56:59;;;;;;;9.20;0.73;;;12.60;68.80;;;;;;5370273;26;19992;-79
2024/04/11 00:59:25;;;;;;;8.55;0.80;;;12.60;68.90;;;;;;5370475;26;19996;-78
2024/04/11 01:01:51;;;;;;;10.13;1.23;;;12.60;68.90;;;;;;5380676;26;20478;-77
2024/04/11 01:04:17;;;;;;;5.75;0.80;;;12.70;69.00;;;;;;5381997;26;20000;-78
2024/04/11 01:09:35;;;;;;;7.95;1.25;;;12.70;69.50;;;;;;5394687;26;20077;-78
2024/04/11 01:12:02;;;;;;;5.25;0.68;;;12.60;68.80;;;;;;5384274;26;20007;-77
2024/04/11 01:14:27;;;;;;;5.47;1.10;;;12.70;69.00;;;;;;5372458;26;20032;-79
2024/04/11 01:16:54;;;;;;;5.40;0.77;;;12.70;68.90;;;;;;5369797;26;20432;-76
2024/04/11 01:19:19;;;;;;;5.32;0.60;;;12.70;68.90;;;;;;5372563;26;20008;-77
2024/04/11 01:21:46;;;;;;;6.75;0.98;;;12.70;69.60;;;;;;5370177;26;20361;-78
2024/04/11 01:24:14;;;;;;;4.70;1.52;;;12.70;68.90;;;;;;5371899;26;20001;-77
2024/04/11 01:26:40;;;;;;;6.30;0.80;;;12.70;69.10;;;;;;5372321;26;19997;-77
2024/04/11 01:29:07;;;;;;;6.93;0.50;;;12.70;69.10;;;;;;5372418;26;20000;-78
2024/04/11 01:31:33;;;;;;;4.30;0.85;;;12.80;69.10;;;;;;5369804;26;20009;-78
2024/04/11 01:33:59;;;;;;;8.55;1.10;;;12.80;68.90;;;;;;5370601;26;20359;-79
2024/04/11 01:36:25;;;;;;;7.13;0.73;;;12.80;68.90;;;;;;5371577;26;20054;-79
2024/04/11 01:38:50;;;;;;;8.68;1.13;;;12.80;68.90;;;;;;5389448;26;20000;-79
2024/04/11 01:41:16;;;;;;;4.38;0.80;;;12.90;69.00;;;;;;5370104;26;20008;-77
2024/04/11 01:43:41;;;;;;;4.15;0.73;;;12.80;68.90;;;;;;5376865;26;20471;-76
2024/04/11 01:46:07;;;;;;;5.68;0.80;;;12.80;68.80;;;;;;5384509;26;20066;-76
2024/04/11 01:48:33;;;;;;;7.60;0.90;;;12.90;68.90;;;;;;5370095;26;20032;-76
2024/04/11 01:50:59;;;;;;;5.10;0.80;;;12.90;69.00;;;;;;5372082;26;20065;-77
2024/04/11 01:53:24;;;;;;;5.25;0.63;;;12.90;68.90;;;;;;5369225;26;19992;-77
2024/04/11 01:55:50;;;;;;;5.38;1.15;;;12.90;68.90;;;;;;5371554;26;19997;-77
2024/04/11 01:58:16;;;;;;;4.70;0.75;;;12.90;68.90;;;;;;5371146;26;20355;-77
2024/04/11 02:00:43;;;;;;;6.57;0.90;;;12.90;68.90;;;;;;5389001;26;20019;-78
2024/04/11 02:03:10;;;;;;;6.80;0.90;;;12.90;68.90;;;;;;5400483;26;19996;-76
2024/04/11 02:05:35;;;;;;;5.22;0.70;;;12.90;68.90;;;;;;5404534;26;20072;-76
2024/04/11 02:08:06;;;;;;;4.32;0.70;;;12.90;68.90;;;;;;5405996;26;20004;-78
2024/04/11 02:10:31;;;;;;;3.53;0.75;;;13.00;69.00;;;;;;5395472;26;20037;-78
2024/04/11 02:12:58;;;;;;;2.08;0.50;;;13.00;69.70;;;;;;5398712;26;19997;-77
2024/04/11 02:15:24;;;;;;;5.28;0.80;;;13.00;68.90;;;;;;5388976;26;20001;-78
2024/04/11 02:17:50;;;;;;;3.65;0.75;;;13.00;68.90;;;;;;5369838;26;19996;-78
2024/04/11 02:20:16;;;;;;;3.60;0.70;;;13.00;68.90;;;;;;5371576;26;20001;-77
2024/04/11 02:22:43;;;;;;;3.35;0.65;;;13.00;68.80;;;;;;5370421;26;20012;-78
2024/04/11 02:25:09;;;;;;;10.20;1.25;;;13.00;68.60;;;;;;5368900;26;19996;-77
2024/04/11 02:27:35;;;;;;;8.27;1.20;;;13.00;68.60;;;;;;5368916;26;19999;-77
2024/04/11 02:30:03;;;;;;;6.05;0.95;;;13.10;68.60;;;;;;5371032;26;19997;-78
2024/04/11 02:32:30;;;;;;;5.22;0.73;;;13.00;68.60;;;;;;5374746;26;20003;-78
2024/04/11 02:34:56;;;;;;;5.07;0.80;;;13.00;68.50;;;;;;5374475;26;20010;-78
2024/04/11 02:37:22;;;;;;;7.07;1.10;;;13.10;68.60;;;;;;5373960;26;19992;-79
2024/04/11 02:39:47;;;;;;;6.95;0.70;;;13.10;68.60;;;;;;5372873;26;20447;-78
2024/04/11 02:42:13;;;;;;;5.43;0.80;;;13.10;68.50;;;;;;5372360;26;20008;-79
2024/04/11 02:44:40;;;;;;;5.35;1.05;;;13.10;68.60;;;;;;5374142;26;19996;-77
2024/04/11 02:47:05;;;;;;;7.32;1.50;;;13.10;68.60;;;;;;5372512;26;20016;-77
2024/04/11 02:49:31;;;;;;;5.40;1.33;;;13.10;68.60;;;;;;5372466;26;20003;-77
2024/04/11 02:51:57;;;;;;;5.60;1.10;;;13.10;68.80;;;;;;5374252;26;19996;-77
2024/04/11 02:54:23;;;;;;;4.50;0.80;;;13.10;68.70;;;;;;5374127;26;19996;-77
2024/04/11 02:56:49;;;;;;;6.55;0.85;;;13.10;68.60;;;;;;5374042;26;19992;-77
2024/04/11 02:59:14;;;;;;;10.45;1.13;;;13.10;68.60;;;;;;5373851;26;20483;-78
2024/04/11 03:01:41;;;;;;;3.58;0.57;;;13.10;68.70;;;;;;5374354;26;20004;-77
2024/04/11 03:04:08;;;;;;;6.80;1.00;;;13.10;68.70;;;;;;5372159;26;19992;-77
2024/04/11 03:06:35;;;;;;;5.80;0.80;;;13.10;68.70;;;;;;5372279;26;19992;-77
2024/04/11 03:09:03;;;;;;;4.75;0.82;;;13.10;68.70;;;;;;5391339;26;20043;-77
2024/04/11 03:11:29;;;;;;;6.03;1.00;;;13.10;68.80;;;;;;5374158;26;20000;-77
2024/04/11 03:13:58;;;;;;;5.50;0.60;;;13.10;68.80;;;;;;5374107;26;20313;-76
2024/04/11 03:16:25;;;;;;;6.55;1.00;;;13.10;68.80;;;;;;5393037;26;20026;-77
2024/04/11 03:18:53;;;;;;;4.85;0.88;;;13.10;68.80;;;;;;5374668;26;19993;-76
2024/04/11 03:21:19;;;;;;;4.90;1.10;;;13.10;68.90;;;;;;5378123;26;20007;-78
2024/04/11 03:23:47;;;;;;;8.52;0.98;;;13.10;68.90;;;;;;5388543;26;19997;-78
2024/04/11 03:26:13;;;;;;;5.53;1.20;;;13.10;69.00;;;;;;5371692;26;19992;-79
2024/04/11 03:28:38;;;;;;;4.35;0.77;;;13.20;69.60;;;;;;5371672;26;20458;-77
2024/04/11 03:31:05;;;;;;;7.70;0.82;;;13.10;68.90;;;;;;5373469;26;20007;-78
2024/04/11 03:33:32;;;;;;;6.60;1.00;;;13.10;69.60;;;;;;5373820;26;20336;-78
2024/04/11 03:36:01;;;;;;;7.13;1.27;;;13.10;69.00;;;;;;5371535;26;20076;-79
2024/04/11 03:38:28;;;;;;;10.90;0.90;;;13.10;69.80;;;;;;5373439;26;19996;-78
2024/04/11 03:41:02;;;;;;;6.57;0.90;;;13.10;69.30;;;;;;5371247;26;20040;-79
2024/04/11 03:43:29;;;;;;;6.90;0.95;;;13.10;69.40;;;;;;5374424;26;20097;-79
2024/04/11 03:46:07;;;;;;;6.75;1.35;;;13.10;69.30;;;;;;5373908;26;19992;-78
2024/04/11 03:48:36;;;;;;;5.88;0.77;;;13.10;69.30;;;;;;5373686;26;20001;-79
2024/04/11 03:51:15;;;;;;;5.43;0.88;;;13.10;69.50;;;;;;5373115;26;20077;-77
2024/04/11 03:53:41;;;;;;;6.60;1.00;;;13.10;69.50;;;;;;5371744;26;20029;-80
2024/04/11 03:56:14;;;;;;;6.95;0.77;;;13.10;69.50;;;;;;5381609;26;20036;-76
2024/04/11 03:58:40;;;;;;;8.00;1.10;;;13.10;69.50;;;;;;5382373;26;20101;-76
2024/04/11 04:01:13;;;;;;;8.75;1.25;;;13.10;69.60;;;;;;5392678;26;20029;-78
2024/04/11 04:03:42;;;;;;;4.97;0.60;;;13.10;69.60;;;;;;5377098;26;20077;-77
2024/04/11 04:06:15;;;;;;;4.47;0.77;;;13.10;69.60;;;;;;5388988;26;20436;-76
2024/04/11 04:08:45;;;;;;;5.78;0.98;;;13.10;69.70;;;;;;5371042;26;20008;-77
2024/04/11 04:11:15;;;;;;;5.32;0.88;;;13.10;70.00;;;;;;5390787;26;20075;-78
2024/04/11 04:13:41;;;;;;;5.57;1.17;;;13.00;70.10;;;;;;5401050;26;20065;-78
2024/04/11 04:16:10;;;;;;;6.53;0.82;;;13.00;70.00;;;;;;5381790;26;20000;-76
2024/04/11 04:18:40;;;;;;;6.13;0.88;;;13.00;70.00;;;;;;5408267;26;20131;-78
2024/04/11 04:21:09;;;;;;;7.65;0.75;;;13.10;70.50;;;;;;5396596;26;20469;-78
2024/04/11 04:23:35;;;;;;;8.02;1.23;;;13.10;70.60;;;;;;5376334;26;20023;-78
2024/04/11 04:26:05;;;;;;;3.30;0.80;;;13.00;70.60;;;;;;5371050;26;19997;-77
2024/04/11 04:28:32;;;;;;;4.78;0.70;;;13.00;70.70;;;;;;5371037;26;20061;-79
2024/04/11 04:31:23;;;;;;;4.72;0.70;;;13.00;70.70;;;;;;5386284;26;20004;-79
2024/04/11 04:33:50;;;;;;;6.47;1.10;;;13.00;70.90;;;;;;5372701;26;20361;-78
2024/04/11 04:36:26;;;;;;;4.15;0.75;;;13.00;71.00;;;;;;5373068;26;20004;-79
2024/04/11 04:38:53;;;;;;;5.40;0.90;;;13.00;71.00;;;;;;5371189;26;20009;-78
2024/04/11 04:41:26;;;;;;;8.88;1.20;;;12.90;71.40;;;;;;5399592;26;20028;-78
2024/04/11 04:43:54;;;;;;;8.68;0.88;;;12.90;71.40;;;;;;5370944;26;20000;-76
2024/04/11 04:46:24;;;;;;;5.93;0.80;;;12.90;71.60;;;;;;5385586;26;20524;-79
2024/04/11 04:48:52;;;;;;;3.25;0.68;;;12.90;71.60;;;;;;5392261;26;19996;-77
2024/04/11 04:51:20;;;;;;;7.35;0.80;;;12.90;71.70;;;;;;5396255;26;20010;-77
2024/04/11 04:53:46;;;;;;;5.90;0.85;;;12.90;71.90;;;;;;5374298;26;20331;-78
2024/04/11 04:56:13;;;;;;;6.07;1.40;;;12.80;72.20;;;;;;5372278;26;19993;-81
2024/04/11 04:58:42;;;;;;;5.03;0.82;;;12.80;72.20;;;;;;5370773;26;20173;-78
2024/04/11 05:01:08;;;;;;;2.35;0.40;;;12.90;72.40;;;;;;5370623;26;20000;-76
2024/04/11 05:03:40;;;;;;;5.90;0.60;;;12.80;72.30;;;;;;5372187;26;20015;-78
2024/04/11 05:06:11;;;;;;;2.80;0.60;;;12.80;72.50;;;;;;5370484;26;20027;-78
2024/04/11 05:08:37;;;;;;;3.63;0.82;;;12.80;72.60;;;;;;5381253;26;20023;-77
2024/04/11 05:11:13;;;;;;;4.53;0.80;;;12.80;73.00;;;;;;5383586;26;19996;-77
2024/04/11 05:13:40;;;;;;;6.55;1.05;;;12.80;72.90;;;;;;5379269;26;20011;-78
2024/04/11 05:16:07;;;;;;;6.68;0.80;;;12.80;73.50;;;;;;5391082;26;20139;-75
2024/04/11 05:18:37;;;;;;;6.95;0.75;;;12.90;73.40;;;;;;5404410;26;20080;-77
2024/04/11 05:21:09;;;;;;;10.32;0.80;;;12.90;73.30;;;;;;5407158;26;20036;-77
2024/04/11 05:23:39;;;;;;;4.70;1.00;;;12.90;73.70;;;;;;5404746;26;20015;-78
2024/04/11 05:26:14;;;;;;;6.97;0.70;;;12.90;73.90;;;;;;5402890;26;20014;-78
2024/04/11 05:28:47;;;;;;;6.90;0.95;;;12.90;73.80;;;;;;5405302;26;20000;-78
2024/04/11 05:31:25;;;;;;;4.75;1.27;;;12.90;73.90;;;;;;5397219;26;20000;-77
2024/04/11 05:33:54;;;;;;;4.03;0.80;;;12.90;74.00;;;;;;5388512;26;20003;-78
2024/04/11 05:36:25;;;;;;;6.97;0.70;;;12.90;74.00;;;;;;5407142;26;20101;-76
2024/04/11 05:38:51;;;;;;;7.15;0.90;;;13.00;73.90;;;;;;5395371;26;20000;-78
2024/04/11 05:41:17;;;;;;;6.25;1.17;;;13.00;74.10;;;;;;5374719;26;20007;-77
2024/04/11 05:43:43;;;;;;;5.63;1.15;;;13.00;74.10;;;;;;5369949;26;19996;-78
2024/04/11 05:46:17;;;;;;;3.25;0.70;;;13.00;74.30;;;;;;5373705;26;20000;-79
2024/04/11 05:48:44;;;;;;;6.25;0.90;;;13.00;74.40;;;;;;5371430;26;20006;-77
2024/04/11 05:51:10;;;;;;;6.47;0.80;;;13.00;74.40;;;;;;5388568;26;20000;-82
2024/04/11 05:53:37;;;;;;;3.88;0.93;;;13.10;74.80;;;;;;5373559;26;20000;-77
2024/04/11 05:56:13;;;;;;;4.63;0.80;;;13.10;74.80;;;;;;5369186;26;20011;-78
2024/04/11 05:58:40;;;;;;;6.30;0.90;;;13.10;75.60;;;;;;5370985;26;20019;-77
2024/04/11 06:01:06;;;;;;;6.82;0.70;;;13.10;75.20;;;;;;5389040;26;20444;-78
2024/04/11 06:03:41;;;;;;;5.63;0.98;;;13.10;75.20;;;;;;5374708;26;20036;-77
2024/04/11 06:06:08;;;;;;;3.78;0.60;;;13.10;75.20;;;;;;5390747;26;20032;-78
2024/04/11 06:08:34;;;;;;;6.13;0.70;;;13.10;75.30;;;;;;5390934;26;20000;-79
2024/04/11 06:11:00;;;;;;;5.05;0.50;;;13.10;75.60;;;;;;5402052;26;19996;-80
2024/04/11 06:13:27;;;;;;;6.15;0.80;;;13.10;75.60;;;;;;5407843;26;20000;-76
2024/04/11 06:15:53;;;;;;;7.47;1.45;;;13.10;75.60;;;;;;5409641;26;20007;-76
2024/04/11 06:18:19;;;;;;;8.77;0.70;;;13.10;76.20;;;;;;5396166;26;19999;-78
2024/04/11 06:20:45;;;;;;;4.95;0.80;;;13.10;76.30;;;;;;5383979;26;20009;-78
2024/04/11 06:23:15;;;;;;;5.05;0.70;;;13.10;76.70;;;;;;5390134;26;20067;-79
2024/04/11 06:25:42;;;;;;;5.60;0.90;;;13.10;76.80;;;;;;5394027;26;20061;-78
2024/04/11 06:28:11;;;;;;;3.67;0.77;;;13.10;76.80;;;;;;5396305;26;20076;-79
2024/04/11 06:30:38;;;;;;;5.45;0.70;;;13.10;77.10;;;;;;5387700;26;20007;-80
2024/04/11 06:33:08;;;;;;;4.82;0.60;;;13.10;77.40;;;;;;5380735;26;20000;-79
2024/04/11 06:35:35;;;;;;;5.68;0.60;;;13.00;77.60;;;;;;5401723;26;20432;-79
2024/04/11 06:38:05;;;;;;;5.63;0.95;;;13.00;77.90;;;;;;5372881;26;20004;-79
2024/04/11 06:40:33;;;;;;;5.55;0.88;;;13.00;78.60;;;;;;5374620;26;19993;-78
2024/04/11 06:42:59;;;;;;;4.10;0.85;;;13.00;79.30;;;;;;5373917;26;20015;-79
2024/04/11 06:45:25;;;;;;;3.63;0.68;;;13.00;79.10;;;;;;5374043;26;20001;-79
2024/04/11 06:47:52;;;;;;;4.72;1.38;;;13.00;79.40;;;;;;5387022;26;20032;-79
2024/04/11 06:50:22;;;;;;;4.03;0.82;;;13.00;80.60;;;;;;5398036;26;20455;-78
2024/04/11 06:52:48;;;;;;;6.40;0.60;;;13.00;80.00;;;;;;5396538;26;20367;-77
2024/04/11 06:55:14;;;;;;;5.32;0.90;;;12.90;80.40;;;;;;5373976;26;20035;-80
2024/04/11 06:57:44;;;;;;;4.97;1.00;;;13.00;80.40;;;;;;5374149;26;20023;-80
2024/04/11 07:00:21;;;;;;;4.78;0.70;;;13.00;80.50;;;;;;5394128;26;19996;-79
2024/04/11 07:02:49;;;;;;;8.27;1.25;;;13.00;80.80;;;;;;5383720;26;20012;-80
2024/04/11 07:05:16;;;;;;;6.40;0.90;;;13.00;81.20;;;;;;5383265;26;19997;-79
2024/04/11 07:07:45;;;;;;;8.15;1.10;;;13.00;81.00;;;;;;5371103;26;20008;-78
2024/04/11 07:10:24;;;;;;;11.55;0.95;;;13.00;80.90;;;;;;5393222;26;20000;-79
2024/04/11 07:12:50;;;;;;;4.95;0.95;;;13.00;81.40;;;;;;5378494;26;20171;-79
2024/04/11 07:15:18;;;;;;;4.80;0.70;;;13.00;81.20;;;;;;5381698;26;20007;-79
2024/04/11 07:18:01;;;;;;;5.53;0.60;;;13.00;81.10;;;;;;5389652;26;19997;-79
2024/04/11 07:20:31;;;;;;;5.53;1.00;;;13.10;81.20;;;;;;5376167;26;20359;-79
2024/04/11 07:23:04;;;;;;;6.43;0.70;;;13.00;81.30;;;;;;5391004;26;20343;-79
2024/04/11 07:25:32;;;;;;;8.10;1.17;;;13.00;81.50;;;;;;5391430;26;20014;-79
2024/04/11 07:28:00;;;;;;;5.55;0.77;;;13.10;82.00;;;;;;5382529;26;20012;-78
2024/04/11 07:30:29;;;;;;;3.67;0.93;;;13.00;82.10;;;;;;5391778;26;20000;-79
2024/04/11 07:32:56;;;;;;;6.32;0.90;;;13.00;82.30;;;;;;5382195;26;20018;-79
2024/04/11 07:35:26;;;;;;;4.47;0.93;;;13.00;82.70;;;;;;5391764;26;20072;-80
2024/04/11 07:37:57;;;;;;;5.88;1.17;;;13.00;83.40;;;;;;5374112;26;19996;-79
2024/04/11 07:40:32;;;;;;;6.25;1.00;;;13.00;83.30;;;;;;5373914;26;19996;-78
2024/04/11 07:43:06;;;;;;;3.78;0.73;;;12.90;83.30;;;;;;5377828;26;20011;-79
2024/04/11 07:45:40;;;;;;;5.70;1.00;;;12.90;84.10;;;;;;5387271;26;20000;-78
2024/04/11 07:48:09;;;;;;;4.88;1.00;;;12.80;84.00;;;;;;5373563;26;20460;-78
2024/04/11 07:50:35;;;;;;;4.72;0.90;;;12.90;84.60;;;;;;5375963;26;20140;-78
2024/04/11 07:53:07;;;;;;;5.72;0.98;;;12.80;84.70;;;;;;5392803;26;20490;-77
2024/04/11 07:55:34;;;;;;;6.35;1.00;;;12.90;85.20;;;;;;5389624;26;20456;-78
2024/04/11 07:58:05;;;;;;;7.07;1.00;;;12.90;85.40;;;;;;5371083;26;20029;-80
2024/04/11 08:00:39;;;;;;;6.60;1.08;;;12.90;86.00;;;;;;5370881;26;20405;-79
2024/04/11 08:03:05;;;;;;;;;;;12.90;85.80;;;;;;5371847;26;19996;-79
2024/04/11 08:05:31;;;;;;;3.10;0.70;;;12.90;85.70;;;;;;5400796;26;19933;-79
2024/04/11 08:07:57;;;;;;;8.27;1.08;;;12.90;86.50;;;;;;5377299;26;20014;-78
2024/04/11 08:10:27;;;;;;;6.25;0.90;;;12.90;86.10;;;;;;5388736;26;20000;-79
2024/04/11 08:12:53;;;;;;;6.53;0.93;;;12.90;86.80;;;;;;5381474;26;20080;-79
2024/04/11 08:15:19;;;;;;;4.75;1.00;;;12.90;86.40;;;;;;5380472;26;20007;-78
2024/04/11 08:17:45;;;;;;;7.35;1.17;;;13.00;86.60;;;;;;5371273;26;20447;-78
2024/04/11 08:20:14;;;;;;;5.63;0.98;;;12.90;86.90;;;;;;5370901;26;20093;-79
2024/04/11 08:22:41;;;;;;;6.15;1.17;;;12.90;87.50;;;;;;5372659;26;20327;-83
2024/04/11 08:25:12;;;;;;;7.53;1.33;;;13.00;87.90;;;;;;5372396;26;20015;-76
2024/04/11 08:27:39;;;;;;;5.40;1.08;;;13.00;88.00;;;;;;5371549;26;20009;-79
2024/04/11 08:30:11;;;;;;;7.65;1.02;;;13.00;88.40;;;;;;5384951;26;20456;-81
2024/04/11 08:32:45;;;;;;;6.30;1.23;;;13.00;88.40;;;;;;5375154;26;19996;-79
2024/04/11 08:35:20;;;;;;;10.60;1.33;;;13.00;88.40;;;;;;5370858;26;20007;-77
2024/04/11 08:37:47;;;;;;;6.35;1.33;;;13.00;88.50;;;;;;5373472;26;20419;-79
2024/04/11 08:40:13;;;;;;;4.38;1.10;;;13.10;88.50;;;;;;5372516;26;20071;-80
2024/04/11 08:42:42;;;;;;;5.13;1.50;;;13.10;88.80;;;;;;5370404;26;20009;-79
2024/04/11 08:45:08;;;;;;;9.00;1.33;;;13.10;89.20;;;;;;5385276;26;19999;-79
2024/04/11 08:47:35;;;;;;;4.03;1.23;;;13.20;88.90;;;;;;5382464;26;20543;-79
2024/04/11 08:50:00;;;;;;;4.60;1.33;;;13.20;89.10;;;;;;5385420;26;19995;-79
2024/04/11 08:52:30;;;;;;;5.95;0.90;;;13.30;89.30;;;;;;5375701;26;19993;-79
2024/04/11 08:54:57;;;;;;;6.03;1.02;;;13.40;89.40;;;;;;5377879;26;20013;-79
2024/04/11 08:57:24;;;;;;;4.85;0.77;;;13.50;89.60;;;;;;5381761;26;19997;-78
2024/04/11 08:59:50;;;;;;;4.78;1.27;;;13.60;89.40;;;;;;5370904;26;20069;-78
2024/04/11 09:02:16;;;;;;;4.85;1.20;;;13.70;89.70;;;;;;5372239;26;19996;-78
2024/04/11 09:04:42;;;;;;;6.05;1.33;;;13.80;89.90;;;;;;5373193;26;20012;-78
2024/04/11 09:07:20;;;;;;;4.97;1.40;;;13.80;89.80;;;;;;5372770;26;20012;-79
2024/04/11 09:09:50;;;;;;;7.93;1.40;;;13.70;89.50;;;;;;5373981;26;20000;-81
2024/04/11 09:12:22;;;;;;;4.60;1.02;;;13.70;90.00;;;;;;5388892;26;20452;-76
2024/04/11 09:14:48;;;;;;;4.20;1.00;;;13.70;90.00;;;;;;5382046;26;20039;-79
2024/04/11 09:17:17;;;;;;;5.47;1.15;;;13.70;90.30;;;;;;5383057;26;20324;-77
2024/04/11 09:19:45;;;;;;;4.40;1.30;;;13.70;90.20;;;;;;5372440;26;20012;-77
2024/04/11 09:22:14;;;;;;;6.07;1.35;;;13.70;90.20;;;;;;5383534;26;20031;-78
2024/04/11 09:24:43;;;;;;;2.92;1.10;;;13.70;90.30;;;;;;5381323;26;20469;-79
2024/04/11 09:27:11;;;;;;;4.13;1.10;;;13.70;90.20;;;;;;5389479;26;20376;-79
2024/04/11 09:29:37;;;;;;;3.47;1.20;;;13.70;90.60;;;;;;5386423;26;20058;-79
2024/04/11 09:32:03;;;;;;;5.03;1.30;;;13.70;90.30;;;;;;5369867;26;20008;-79
2024/04/11 09:34:30;;;;;;;4.32;0.98;;;13.80;90.40;;;;;;5370676;26;20004;-78
2024/04/11 09:37:03;;;;;;;7.10;1.45;;;13.80;90.40;;;;;;5370199;26;19996;-77
2024/04/11 09:39:46;;;;;;;5.22;1.60;;;13.90;90.60;;;;;;5372715;26;20119;-78
2024/04/11 09:42:18;;;;;;;4.93;1.23;;;13.90;90.80;;;;;;5375240;26;20000;-77
2024/04/11 09:44:47;;;;;;;5.07;1.48;;;14.00;90.80;;;;;;5373461;26;20043;-80
2024/04/11 09:47:24;;;;;;;7.82;1.70;;;13.90;90.90;;;;;;5386667;26;20003;-80
2024/04/11 09:50:04;;;;;;;4.95;1.50;;;14.00;91.10;;;;;;5392128;26;20003;-78
2024/04/11 09:52:34;;;;;;;8.05;1.90;;;14.00;91.10;;;;;;5390849;26;20004;-79
2024/04/11 09:55:04;;;;;;;4.43;1.83;;;14.10;91.10;;;;;;5393983;26;20004;-77
2024/04/11 09:57:44;;;;;;;7.03;1.98;;;14.10;91.30;;;;;;5375133;26;20008;-79
2024/04/11 10:00:22;;;;;;;7.05;2.53;;;14.10;91.50;;;;;;5375600;26;20043;-79
2024/04/11 10:02:55;;;;;;;7.00;1.83;;;14.20;91.70;;;;;;5394635;26;20004;-80
2024/04/11 10:05:23;;;;;;;7.82;2.30;;;14.20;91.70;;;;;;5373331;26;19997;-79
2024/04/11 10:07:58;;;;;;;7.70;2.60;;;14.20;91.70;;;;;;5372262;26;19996;-79
2024/04/11 10:10:27;;;;;;;12.45;3.08;;;14.20;91.90;;;;;;5373096;26;20332;-78
2024/04/11 10:12:58;;;;;;;6.50;2.42;;;14.20;92.10;;;;;;5373086;26;20068;-80
2024/04/11 10:15:29;;;;;;;10.55;3.63;;;14.20;92.30;;;;;;5374543;26;19996;-78
2024/04/11 10:18:10;;;;;;;8.75;3.25;;;14.20;92.70;;;;;;5372960;26;20008;-79
2024/04/11 10:20:59;;;;;;;8.30;2.85;;;14.20;92.90;;;;;;5392577;26;19999;-78
2024/04/11 10:23:28;;;;;;;8.70;3.70;;;14.20;92.80;;;;;;5389916;26;19995;-78
2024/04/11 10:25:56;;;;;;;5.85;2.85;;;14.20;93.10;;;;;;5393981;26;20024;-78
2024/04/11 10:28:38;;;;;;;9.73;3.90;;;14.20;93.30;;;;;;5372543;26;20011;-81
2024/04/11 10:31:12;;;;;;;7.85;3.78;;;14.20;93.60;;;;;;5374376;26;20004;-79
2024/04/11 10:33:52;;;;;;;10.82;4.28;;;14.30;93.60;;;;;;5394265;26;20025;-78
2024/04/11 10:36:21;;;;;;;8.27;3.22;;;14.30;93.90;;;;;;5394168;26;20003;-79
2024/04/11 10:38:57;;;;;;;8.27;3.15;;;14.20;93.80;;;;;;5372295;26;19992;-80
2024/04/11 10:41:23;;;;;;;9.60;3.97;;;14.30;94.10;;;;;;5372357;26;20061;-79
2024/04/11 10:43:55;;;;;;;10.18;4.07;;;14.30;94.40;;;;;;5372651;26;20069;-80
2024/04/11 10:46:22;;;;;;;8.43;3.75;;;14.30;94.70;;;;;;5386906;26;20463;-78
2024/04/11 10:48:49;;;;;;;10.30;4.18;;;14.30;94.70;;;;;;5386072;26;20484;-79
2024/04/11 10:51:15;;;;;;;5.25;3.47;;;14.30;95.00;;;;;;5388127;26;20006;-78
2024/04/11 10:53:47;;;;;;;9.80;4.30;;;14.30;95.20;;;;;;5383453;26;20003;-79
2024/04/11 10:56:22;;;;;;;8.15;4.35;;;14.30;95.80;;;;;;5379210;26;20008;-79
2024/04/11 10:58:53;;;;;;;8.40;4.20;;;14.30;95.70;;;;;;5379006;26;20004;-80
2024/04/11 11:01:28;;;;;;;10.02;4.68;;;14.40;96.20;;;;;;5396283;26;20055;-79
2024/04/11 11:03:58;;;;;;;9.38;4.63;;;14.40;96.50;;;;;;5379266;26;20437;-80
2024/04/11 11:06:34;;;;;;;8.07;4.10;;;14.40;96.70;;;;;;5373895;26;20100;-80
2024/04/11 11:09:10;;;;;;;7.18;4.28;;;14.50;97.10;;;;;;5371774;26;20001;-80
2024/04/11 11:11:40;;;;;;;10.40;4.88;;;14.40;97.10;;;;;;5372166;26;19996;-79
2024/04/11 11:14:09;;;;;;;10.50;4.60;;;14.40;97.50;;;;;;5374825;26;20000;-80
2024/04/11 11:16:43;;;;;;;9.57;4.95;;;14.40;98.00;;;;;;5387731;26;20061;-81
2024/04/11 11:19:11;;;;;;;8.02;4.53;;;14.40;98.00;;;;;;5390730;26;20471;-77
2024/04/11 11:21:42;;;;;;;7.30;4.10;;;14.30;98.10;;;;;;5381781;26;20004;-80
2024/04/11 11:24:13;;;;;;;8.00;5.03;;;14.30;98.60;;;;;;5379979;26;20008;-80
2024/04/11 11:26:44;;;;;;;7.20;4.32;;;14.30;98.80;;;;;;5371802;26;19996;-79
2024/04/11 11:29:11;;;;;;;7.78;3.80;;;14.30;99.00;;;;;;5373450;26;20007;-79
2024/04/11 11:31:37;;;;;;;8.50;3.70;;;14.30;98.90;;;;;;5390738;26;20040;-78
2024/04/11 11:34:10;;;;;;;8.98;4.10;;;14.30;99.30;;;;;;5375528;26;20010;-81
2024/04/11 11:36:40;;;;;;;9.95;4.47;;;14.30;99.60;;;;;;5374157;26;20076;-80
2024/04/11 11:39:17;;;;;;;12.27;4.75;;;14.30;99.90;;;;;;5374304;26;20446;-80
2024/04/11 11:41:47;;;;;;;8.98;5.32;;;14.30;99.90;;;;;;5390535;26;20000;-80
2024/04/11 11:44:17;;;;;;;7.88;5.07;;;14.30;99.90;;;;;;5373746;26;20011;-80
2024/04/11 11:46:50;;;;;;;10.98;5.20;;;14.30;99.90;;;;;;5391700;26;20328;-80
2024/04/11 11:49:23;;;;;;;10.32;4.95;;;14.30;99.90;;;;;;5371642;26;20440;-78
2024/04/11 11:51:48;;;;;;;7.72;4.35;;;14.40;99.90;;;;;;5371902;26;20154;-80
2024/04/11 11:54:14;;;;;;;8.10;4.93;;;14.40;99.90;;;;;;5373478;26;20004;-81
2024/04/11 11:56:42;;;;;;;7.55;4.82;;;14.40;99.90;;;;;;5371526;26;20004;-79
2024/04/11 11:59:10;;;;;;;8.85;4.78;;;14.40;99.90;;;;;;5371473;26;20148;-80
2024/04/11 12:01:43;;;;;;;8.07;4.90;;;14.50;99.90;;;;;;5372807;26;20072;-81
2024/04/11 12:04:10;;;;;;;8.55;5.07;;;14.60;99.90;;;;;;5371449;26;19993;-81
2024/04/11 12:06:36;;;;;;;8.77;5.00;;;14.60;99.90;;;;;;5371705;26;20091;-80
2024/04/11 12:09:12;;;;;;;7.68;4.90;;;14.60;99.90;;;;;;5372558;26;19996;-80
2024/04/11 12:12:07;;;;;;;6.97;5.07;;;14.60;99.90;;;;;;5374235;26;20004;-78
2024/04/11 12:14:35;;;;;;;9.27;5.70;;;14.70;99.90;;;;;;5386766;26;20094;-80
2024/04/11 12:17:05;;;;;;;10.70;6.03;;;14.70;99.90;;;;;;5378722;26;19995;-79
2024/04/11 12:19:31;;;;;;;9.77;7.00;;;14.80;99.90;;;;;;5388768;26;19992;-80
2024/04/11 12:22:10;;;;;;;11.57;7.18;;;14.80;99.90;;;;;;5370844;26;19997;-80
2024/04/11 12:24:40;;;;;;;10.77;6.30;;;14.80;99.90;;;;;;5404204;26;20444;-82
2024/04/11 12:27:06;;;;;;;11.88;6.60;;;14.80;99.90;;;;;;5406575;26;19992;-80
2024/04/11 12:29:32;;;;;;;8.13;6.20;;;14.80;99.90;;;;;;5408263;26;19999;-80
2024/04/11 12:32:03;;;;;;;13.07;6.93;;;14.80;99.90;;;;;;5398208;26;20015;-81
2024/04/11 12:34:32;;;;;;;10.75;6.80;;;14.90;99.90;;;;;;5386660;26;20074;-79
2024/04/11 12:37:09;;;;;;;11.32;7.72;;;14.90;99.90;;;;;;5370755;26;19992;-79
2024/04/11 12:39:41;;;;;;;9.30;7.13;;;14.90;99.90;;;;;;5377490;26;20427;-80
2024/04/11 12:42:07;;;;;;;11.70;7.40;;;15.00;99.90;;;;;;5392213;26;20011;-79
2024/04/11 12:44:36;;;;;;;10.23;6.70;;;15.10;99.90;;;;;;5385829;26;20007;-79
2024/04/11 12:47:13;;;;;;;10.30;6.50;;;15.10;99.90;;;;;;5377747;26;20014;-80
2024/04/11 12:49:48;;;;;;;8.90;6.40;;;15.20;99.90;;;;;;5381969;26;20329;-81
2024/04/11 12:52:25;;;;;;;12.15;6.68;;;15.20;99.90;;;;;;5370753;26;20305;-80
2024/04/11 12:54:52;;;;;;;10.38;7.28;;;15.30;99.90;;;;;;5372581;26;19996;-80
2024/04/11 12:57:18;;;;;;;11.68;8.00;;;15.30;99.90;;;;;;5370285;26;20324;-80